Princeton, Canada
Current Conditions -  °F | °C
As of 1:00 PM on Thursday 23 Oct 2014 (Local Time) from CYDC Reporting Station
Light Rain Light Rain  
Wind Chill: 45°   Ceiling: 3500
Heat Index: 45°   Visibility: 6mi
Dew Point: 41°   Wind: 0mph
Humidity: 87%   Direction: NA
Pressure: 29.71"   Gusts: NA
Location:  49.46°N, 120.5°W
Report Text: CYDC 232000Z 00000KT 6SM -RA BR SCT015 OVC035 07/05 A2971 RMK ST4SC4 SLP069
Loading
Personal Weather Stations






























Interactive Weather Map
Tropical Storm Tracking
New forecast layout! Learn more

10-Day Weather Forecast

Advertisements
Track Severe Weather on mobile